sensor_id;sensor_type;location;lat;lon;timestamp;pressure;altitude;pressure_sealevel;temperature;humidity
59825;BME280;45703;50.898;6.054;2022-07-29T00:00:42;100104.00;;;19.22;52.24
59825;BME280;45703;50.898;6.054;2022-07-29T00:03:11;100102.34;;;19.26;52.33
59825;BME280;45703;50.898;6.054;2022-07-29T00:05:39;100089.91;;;19.25;52.33
59825;BME280;45703;50.898;6.054;2022-07-29T00:08:05;100093.13;;;19.27;52.18
59825;BME280;45703;50.898;6.054;2022-07-29T00:10:30;100093.69;;;19.24;52.54
59825;BME280;45703;50.898;6.054;2022-07-29T00:12:55;100086.38;;;19.24;52.10
59825;BME280;45703;50.898;6.054;2022-07-29T00:15:21;100088.22;;;19.34;52.36
59825;BME280;45703;50.898;6.054;2022-07-29T00:17:46;100082.31;;;19.27;52.33
59825;BME280;45703;50.898;6.054;2022-07-29T00:20:11;100075.28;;;19.26;52.69
59825;BME280;45703;50.898;6.054;2022-07-29T00:22:38;100075.84;;;19.23;52.52
59825;BME280;45703;50.898;6.054;2022-07-29T00:25:03;100075.84;;;19.23;52.60
59825;BME280;45703;50.898;6.054;2022-07-29T00:27:29;100079.28;;;19.28;52.85
59825;BME280;45703;50.898;6.054;2022-07-29T00:29:54;100066.63;;;19.24;52.77
59825;BME280;45703;50.898;6.054;2022-07-29T00:32:20;100072.59;;;19.21;52.98
59825;BME280;45703;50.898;6.054;2022-07-29T00:34:45;100086.66;;;19.23;53.29
59825;BME280;45703;50.898;6.054;2022-07-29T00:37:28;100078.03;;;19.21;53.43
59825;BME280;45703;50.898;6.054;2022-07-29T00:39:54;100062.31;;;19.13;53.52
59825;BME280;45703;50.898;6.054;2022-07-29T00:42:20;100071.03;;;19.15;53.54
59825;BME280;45703;50.898;6.054;2022-07-29T00:44:45;100078.81;;;19.21;53.57
59825;BME280;45703;50.898;6.054;2022-07-29T00:47:11;100090.75;;;19.15;54.99
59825;BME280;45703;50.898;6.054;2022-07-29T00:49:38;100095.88;;;19.12;55.10
59825;BME280;45703;50.898;6.054;2022-07-29T00:52:05;100097.22;;;19.14;56.75
59825;BME280;45703;50.898;6.054;2022-07-29T00:54:32;100098.13;;;19.00;58.41
59825;BME280;45703;50.898;6.054;2022-07-29T00:56:58;100105.22;;;18.91;58.40
59825;BME280;45703;50.898;6.054;2022-07-29T00:59:25;100099.09;;;18.71;59.20
59825;BME280;45703;50.898;6.054;2022-07-29T01:01:52;100083.69;;;18.61;58.71
59825;BME280;45703;50.898;6.054;2022-07-29T01:04:17;100083.22;;;18.44;60.75
59825;BME280;45703;50.898;6.054;2022-07-29T01:06:42;100074.59;;;18.42;59.39
59825;BME280;45703;50.898;6.054;2022-07-29T01:09:09;100088.13;;;18.37;59.54
59825;BME280;45703;50.898;6.054;2022-07-29T01:11:36;100081.94;;;18.27;61.25
59825;BME280;45703;50.898;6.054;2022-07-29T01:14:02;100078.97;;;18.18;61.13
59825;BME280;45703;50.898;6.054;2022-07-29T01:16:31;100081.13;;;18.16;60.19
59825;BME280;45703;50.898;6.054;2022-07-29T01:19:13;100081.41;;;18.10;60.43
59825;BME280;45703;50.898;6.054;2022-07-29T01:21:54;100085.19;;;18.14;60.29
59825;BME280;45703;50.898;6.054;2022-07-29T01:24:39;100073.31;;;18.05;60.68
59825;BME280;45703;50.898;6.054;2022-07-29T01:29:54;100066.88;;;17.96;61.51
59825;BME280;45703;50.898;6.054;2022-07-29T01:32:24;100062.81;;;17.88;61.86
59825;BME280;45703;50.898;6.054;2022-07-29T01:35:03;100061.47;;;17.86;62.05
59825;BME280;45703;50.898;6.054;2022-07-29T01:40:03;100077.69;;;17.91;60.95
59825;BME280;45703;50.898;6.054;2022-07-29T01:42:39;100072.28;;;17.86;62.85
59825;BME280;45703;50.898;6.054;2022-07-29T01:48:04;100058.53;;;17.72;62.88
59825;BME280;45703;50.898;6.054;2022-07-29T01:50:35;100064.16;;;17.76;63.47
59825;BME280;45703;50.898;6.054;2022-07-29T01:53:03;100059.59;;;17.71;62.86
59825;BME280;45703;50.898;6.054;2022-07-29T01:55:32;100065.00;;;17.71;62.83
59825;BME280;45703;50.898;6.054;2022-07-29T01:57:59;100063.09;;;17.62;63.40
59825;BME280;45703;50.898;6.054;2022-07-29T02:00:27;100053.41;;;17.56;63.57
59825;BME280;45703;50.898;6.054;2022-07-29T02:02:55;100061.75;;;17.69;63.95
59825;BME280;45703;50.898;6.054;2022-07-29T02:05:22;100056.09;;;17.61;64.39
59825;BME280;45703;50.898;6.054;2022-07-29T02:07:50;100073.09;;;17.56;67.62
59825;BME280;45703;50.898;6.054;2022-07-29T02:10:19;100061.75;;;17.54;64.25
59825;BME280;45703;50.898;6.054;2022-07-29T02:12:47;100059.59;;;17.46;64.11
59825;BME280;45703;50.898;6.054;2022-07-29T02:15:14;100056.09;;;17.46;65.63
59825;BME280;45703;50.898;6.054;2022-07-29T02:17:44;100047.47;;;17.39;64.49
59825;BME280;45703;50.898;6.054;2022-07-29T02:20:12;100040.16;;;17.40;64.55
59825;BME280;45703;50.898;6.054;2022-07-29T02:22:39;100043.41;;;17.37;64.66
59825;BME280;45703;50.898;6.054;2022-07-29T02:25:06;100054.75;;;17.43;65.07
59825;BME280;45703;50.898;6.054;2022-07-29T02:27:34;100045.56;;;17.40;66.12
59825;BME280;45703;50.898;6.054;2022-07-29T02:30:02;100053.66;;;17.40;65.15
59825;BME280;45703;50.898;6.054;2022-07-29T02:32:29;100052.56;;;17.31;64.31
59825;BME280;45703;50.898;6.054;2022-07-29T02:34:56;100054.97;;;17.32;64.60
59825;BME280;45703;50.898;6.054;2022-07-29T02:37:23;100051.72;;;17.25;65.02
59825;BME280;45703;50.898;6.054;2022-07-29T02:39:51;100062.81;;;17.29;64.53
59825;BME280;45703;50.898;6.054;2022-07-29T02:42:18;100055.25;;;17.31;64.73
59825;BME280;45703;50.898;6.054;2022-07-29T02:44:45;100061.97;;;17.28;66.11
59825;BME280;45703;50.898;6.054;2022-07-29T02:47:30;100070.91;;;17.24;67.91
59825;BME280;45703;50.898;6.054;2022-07-29T02:50:07;100069.81;;;17.20;67.02
59825;BME280;45703;50.898;6.054;2022-07-29T02:52:47;100081.94;;;17.17;68.48
59825;BME280;45703;50.898;6.054;2022-07-29T02:55:46;100080.06;;;17.23;66.43
59825;BME280;45703;50.898;6.054;2022-07-29T02:58:30;100078.69;;;17.15;68.72
59825;BME280;45703;50.898;6.054;2022-07-29T03:00:58;100070.59;;;17.10;66.65
59825;BME280;45703;50.898;6.054;2022-07-29T03:03:28;100074.09;;;17.06;68.37
59825;BME280;45703;50.898;6.054;2022-07-29T03:05:56;100076.78;;;17.06;69.97
59825;BME280;45703;50.898;6.054;2022-07-29T03:08:23;100075.69;;;16.97;68.68
59825;BME280;45703;50.898;6.054;2022-07-29T03:10:49;100084.31;;;16.99;67.95
59825;BME280;45703;50.898;6.054;2022-07-29T03:13:16;100092.16;;;17.00;67.36
59825;BME280;45703;50.898;6.054;2022-07-29T03:15:43;100091.88;;;16.97;67.21
59825;BME280;45703;50.898;6.054;2022-07-29T03:18:09;100092.94;;;16.96;68.75
59825;BME280;45703;50.898;6.054;2022-07-29T03:20:35;100078.38;;;16.92;68.13
59825;BME280;45703;50.898;6.054;2022-07-29T03:23:01;100089.72;;;16.99;67.81
59825;BME280;45703;50.898;6.054;2022-07-29T03:25:27;100084.31;;;16.94;68.31
59825;BME280;45703;50.898;6.054;2022-07-29T03:27:52;100085.94;;;16.95;67.77
59825;BME280;45703;50.898;6.054;2022-07-29T03:30:17;100084.31;;;16.99;68.48
59825;BME280;45703;50.898;6.054;2022-07-29T03:32:44;100078.91;;;16.89;67.88
59825;BME280;45703;50.898;6.054;2022-07-29T03:35:09;100078.34;;;16.82;67.58
59825;BME280;45703;50.898;6.054;2022-07-29T03:37:34;100064.88;;;16.77;67.74
59825;BME280;45703;50.898;6.054;2022-07-29T03:40:03;100069.72;;;16.80;68.11
59825;BME280;45703;50.898;6.054;2022-07-29T03:42:35;100071.59;;;16.79;67.59
59825;BME280;45703;50.898;6.054;2022-07-29T03:45:05;100053.53;;;16.75;67.54
59825;BME280;45703;50.898;6.054;2022-07-29T03:47:32;100060.03;;;16.84;67.35
59825;BME280;45703;50.898;6.054;2022-07-29T03:50:04;100062.72;;;16.84;67.31
59825;BME280;45703;50.898;6.054;2022-07-29T03:52:30;100060.84;;;16.84;67.03
59825;BME280;45703;50.898;6.054;2022-07-29T03:54:56;100062.72;;;16.84;67.10
59825;BME280;45703;50.898;6.054;2022-07-29T03:57:25;100055.19;;;16.86;67.41
59825;BME280;45703;50.898;6.054;2022-07-29T03:59:52;100070.28;;;16.87;67.50
59825;BME280;45703;50.898;6.054;2022-07-29T04:02:18;100073.75;;;16.82;67.41
59825;BME280;45703;50.898;6.054;2022-07-29T04:04:44;100079.97;;;16.83;67.43
59825;BME280;45703;50.898;6.054;2022-07-29T04:07:13;100086.75;;;16.85;67.51
59825;BME280;45703;50.898;6.054;2022-07-29T04:09:38;100094.00;;;16.85;67.67
59825;BME280;45703;50.898;6.054;2022-07-29T04:12:04;100085.91;;;16.80;68.16
59825;BME280;45703;50.898;6.054;2022-07-29T04:14:31;100096.16;;;16.83;67.53
59825;BME280;45703;50.898;6.054;2022-07-29T04:16:56;100102.88;;;16.80;67.74
59825;BME280;45703;50.898;6.054;2022-07-29T04:19:22;100096.13;;;16.78;67.90
59825;BME280;45703;50.898;6.054;2022-07-29T04:21:47;100098.84;;;16.78;68.07
59825;BME280;45703;50.898;6.054;2022-07-29T04:24:13;100107.47;;;16.80;67.59
59825;BME280;45703;50.898;6.054;2022-07-29T04:26:38;100103.13;;;16.74;68.07
59825;BME280;45703;50.898;6.054;2022-07-29T04:29:03;100109.63;;;16.78;67.86
59825;BME280;45703;50.898;6.054;2022-07-29T04:31:28;100105.84;;;16.79;67.87
59825;BME280;45703;50.898;6.054;2022-07-29T04:33:54;100105.31;;;16.82;67.96
59825;BME280;45703;50.898;6.054;2022-07-29T04:36:19;100096.13;;;16.78;68.04
59825;BME280;45703;50.898;6.054;2022-07-29T04:38:44;100107.19;;;16.81;68.12
59825;BME280;45703;50.898;6.054;2022-07-29T04:41:10;100105.31;;;16.82;68.08
59825;BME280;45703;50.898;6.054;2022-07-29T04:43:35;100099.94;;;16.82;67.99
59825;BME280;45703;50.898;6.054;2022-07-29T04:46:02;100099.41;;;16.85;67.97
59825;BME280;45703;50.898;6.054;2022-07-29T04:48:27;100095.06;;;16.84;68.15
59825;BME280;45703;50.898;6.054;2022-07-29T04:50:53;100092.38;;;16.84;68.14
59825;BME280;45703;50.898;6.054;2022-07-29T04:53:18;100088.59;;;16.85;68.23
59825;BME280;45703;50.898;6.054;2022-07-29T04:55:43;100081.59;;;16.84;68.15
59825;BME280;45703;50.898;6.054;2022-07-29T04:58:10;100090.22;;;16.86;68.11
59825;BME280;45703;50.898;6.054;2022-07-29T05:00:35;100087.53;;;16.86;68.02
59825;BME280;45703;50.898;6.054;2022-07-29T05:03:01;100091.84;;;16.87;68.17
59825;BME280;45703;50.898;6.054;2022-07-29T05:05:26;100080.28;;;16.86;68.51
59825;BME280;45703;50.898;6.054;2022-07-29T05:07:52;100076.22;;;16.89;68.55
59825;BME280;45703;50.898;6.054;2022-07-29T05:10:17;100080.00;;;16.88;68.74
59825;BME280;45703;50.898;6.054;2022-07-29T05:12:43;100084.59;;;16.92;68.97
59825;BME280;45703;50.898;6.054;2022-07-29T05:15:08;100091.31;;;16.90;68.82
59825;BME280;45703;50.898;6.054;2022-07-29T05:17:34;100098.34;;;16.96;68.73
59825;BME280;45703;50.898;6.054;2022-07-29T05:19:59;100099.41;;;16.95;68.61
59825;BME280;45703;50.898;6.054;2022-07-29T05:22:25;100105.38;;;17.02;68.46
59825;BME280;45703;50.898;6.054;2022-07-29T05:24:50;100095.66;;;17.01;68.55
59825;BME280;45703;50.898;6.054;2022-07-29T05:27:15;100099.47;;;17.10;68.74
59825;BME280;45703;50.898;6.054;2022-07-29T05:29:41;100098.41;;;17.11;68.96
59825;BME280;45703;50.898;6.054;2022-07-29T05:32:06;100104.34;;;17.18;68.70
59825;BME280;45703;50.898;6.054;2022-07-29T05:34:32;100101.13;;;17.21;68.61
59825;BME280;45703;50.898;6.054;2022-07-29T05:36:57;100104.06;;;17.24;68.40
59825;BME280;45703;50.898;6.054;2022-07-29T05:39:23;100104.63;;;17.31;68.17
59825;BME280;45703;50.898;6.054;2022-07-29T05:41:48;100104.94;;;17.35;68.24
59825;BME280;45703;50.898;6.054;2022-07-29T05:44:14;100100.63;;;17.39;67.92
59825;BME280;45703;50.898;6.054;2022-07-29T05:46:40;100099.00;;;17.42;68.07
59825;BME280;45703;50.898;6.054;2022-07-29T05:49:05;100101.16;;;17.45;68.13
59825;BME280;45703;50.898;6.054;2022-07-29T05:51:32;100107.63;;;17.49;68.04
59825;BME280;45703;50.898;6.054;2022-07-29T05:53:57;100120.34;;;17.54;68.12
59825;BME280;45703;50.898;6.054;2022-07-29T05:56:23;100104.94;;;17.54;68.01
59825;BME280;45703;50.898;6.054;2022-07-29T05:58:48;100114.94;;;17.64;67.83
59825;BME280;45703;50.898;6.054;2022-07-29T06:01:13;100117.66;;;17.69;67.92
59825;BME280;45703;50.898;6.054;2022-07-29T06:03:39;100112.53;;;17.77;67.38
59825;BME280;45703;50.898;6.054;2022-07-29T06:06:06;100121.16;;;17.84;67.11
59825;BME280;45703;50.898;6.054;2022-07-29T06:08:32;100129.25;;;17.99;66.80
59825;BME280;45703;50.898;6.054;2022-07-29T06:10:59;100123.03;;;18.09;66.36
59825;BME280;45703;50.898;6.054;2022-07-29T06:13:24;100124.91;;;18.18;66.44
59825;BME280;45703;50.898;6.054;2022-07-29T06:15:49;100121.38;;;18.28;65.90
59825;BME280;45703;50.898;6.054;2022-07-29T06:18:15;100127.56;;;18.43;66.08
59825;BME280;45703;50.898;6.054;2022-07-29T06:20:40;100126.44;;;18.54;65.92
59825;BME280;45703;50.898;6.054;2022-07-29T06:23:06;100133.72;;;18.69;65.33
59825;BME280;45703;50.898;6.054;2022-07-29T06:25:31;100120.66;;;18.81;65.16
59825;BME280;45703;50.898;6.054;2022-07-29T06:28:03;100127.91;;;18.95;64.84
59825;BME280;45703;50.898;6.054;2022-07-29T06:30:29;100121.34;;;19.06;64.47
59825;BME280;45703;50.898;6.054;2022-07-29T06:32:54;100124.56;;;19.13;64.31
59825;BME280;45703;50.898;6.054;2022-07-29T06:35:20;100125.13;;;19.20;63.93
59825;BME280;45703;50.898;6.054;2022-07-29T06:37:45;100118.31;;;19.22;63.40
59825;BME280;45703;50.898;6.054;2022-07-29T06:40:11;100119.94;;;19.23;63.26
59825;BME280;45703;50.898;6.054;2022-07-29T06:42:55;100124.81;;;19.21;63.08
59825;BME280;45703;50.898;6.054;2022-07-29T06:45:20;100118.66;;;19.16;63.02
59825;BME280;45703;50.898;6.054;2022-07-29T06:47:46;100131.88;;;19.17;63.20
59825;BME280;45703;50.898;6.054;2022-07-29T06:50:11;100137.03;;;19.14;63.20
59825;BME280;45703;50.898;6.054;2022-07-29T06:52:38;100125.16;;;19.05;63.05
59825;BME280;45703;50.898;6.054;2022-07-29T06:55:04;100137.31;;;19.07;63.16
59825;BME280;45703;50.898;6.054;2022-07-29T06:57:29;100135.44;;;19.03;63.14
59825;BME280;45703;50.898;6.054;2022-07-29T06:59:57;100142.25;;;19.00;63.12
59825;BME280;45703;50.898;6.054;2022-07-29T07:02:23;100139.00;;;18.98;63.50
59825;BME280;45703;50.898;6.054;2022-07-29T07:04:48;100145.22;;;18.99;63.42
59825;BME280;45703;50.898;6.054;2022-07-29T07:07:14;100150.63;;;18.99;63.09
59825;BME280;45703;50.898;6.054;2022-07-29T07:09:39;100162.56;;;18.93;63.46
59825;BME280;45703;50.898;6.054;2022-07-29T07:12:05;100162.56;;;18.93;63.76
59825;BME280;45703;50.898;6.054;2022-07-29T07:14:31;100163.63;;;18.92;63.87
59825;BME280;45703;50.898;6.054;2022-07-29T07:16:56;100160.94;;;18.92;63.74
59825;BME280;45703;50.898;6.054;2022-07-29T07:19:22;100159.84;;;18.93;63.73
59825;BME280;45703;50.898;6.054;2022-07-29T07:21:47;100176.06;;;18.98;63.44
59825;BME280;45703;50.898;6.054;2022-07-29T07:24:12;100173.88;;;19.00;63.77
59825;BME280;45703;50.898;6.054;2022-07-29T07:26:38;100179.56;;;19.03;63.51
59825;BME280;45703;50.898;6.054;2022-07-29T07:29:04;100167.91;;;19.03;63.36
59825;BME280;45703;50.898;6.054;2022-07-29T07:31:30;100172.47;;;19.12;63.06
59825;BME280;45703;50.898;6.054;2022-07-29T07:33:55;100171.41;;;19.18;63.41
59825;BME280;45703;50.898;6.054;2022-07-29T07:36:21;100165.13;;;19.28;63.47
59825;BME280;45703;50.898;6.054;2022-07-29T07:38:46;100172.66;;;19.36;62.91
59825;BME280;45703;50.898;6.054;2022-07-29T07:41:12;100179.09;;;19.45;63.04
59825;BME280;45703;50.898;6.054;2022-07-29T07:43:37;100180.13;;;19.54;62.82
59825;BME280;45703;50.898;6.054;2022-07-29T07:46:03;100174.66;;;19.59;62.92
59825;BME280;45703;50.898;6.054;2022-07-29T07:48:29;100174.09;;;19.62;62.69
59825;BME280;45703;50.898;6.054;2022-07-29T07:50:54;100180.31;;;19.67;62.43
59825;BME280;45703;50.898;6.054;2022-07-29T07:53:20;100176.75;;;19.72;62.10
59825;BME280;45703;50.898;6.054;2022-07-29T07:55:45;100179.97;;;19.79;62.09
59825;BME280;45703;50.898;6.054;2022-07-29T07:58:10;100159.84;;;19.85;62.48
59825;BME280;45703;50.898;6.054;2022-07-29T08:00:36;100173.84;;;19.97;62.19
59825;BME280;45703;50.898;6.054;2022-07-29T08:03:02;100168.94;;;20.04;62.28
59825;BME280;45703;50.898;6.054;2022-07-29T08:05:28;100172.56;;;20.23;62.01
59825;BME280;45703;50.898;6.054;2022-07-29T08:07:53;100166.00;;;20.29;62.01
59825;BME280;45703;50.898;6.054;2022-07-29T08:10:19;100170.22;;;20.40;61.62
59825;BME280;45703;50.898;6.054;2022-07-29T08:13:05;100191.59;;;20.46;61.43
59825;BME280;45703;50.898;6.054;2022-07-29T08:15:30;100175.94;;;20.61;61.55
59825;BME280;45703;50.898;6.054;2022-07-29T08:17:55;100173.66;;;20.73;61.77
59825;BME280;45703;50.898;6.054;2022-07-29T08:20:21;100173.78;;;20.87;60.88
59825;BME280;45703;50.898;6.054;2022-07-29T08:22:46;100172.88;;;20.96;60.55
59825;BME280;45703;50.898;6.054;2022-07-29T08:25:11;100175.53;;;21.01;60.29
59825;BME280;45703;50.898;6.054;2022-07-29T08:27:37;100179.19;;;21.10;60.34
59825;BME280;45703;50.898;6.054;2022-07-29T08:30:03;100178.28;;;21.20;59.73
59825;BME280;45703;50.898;6.054;2022-07-29T08:32:28;100185.47;;;21.29;60.02
59825;BME280;45703;50.898;6.054;2022-07-29T08:34:53;100183.78;;;21.33;59.41
59825;BME280;45703;50.898;6.054;2022-07-29T08:37:19;100179.97;;;21.34;58.68
59825;BME280;45703;50.898;6.054;2022-07-29T08:39:44;100182.75;;;21.29;58.81
59825;BME280;45703;50.898;6.054;2022-07-29T08:42:10;100178.50;;;21.23;58.70
59825;BME280;45703;50.898;6.054;2022-07-29T08:44:36;100175.56;;;21.20;58.74
59825;BME280;45703;50.898;6.054;2022-07-29T08:47:02;100182.66;;;21.16;58.86
59825;BME280;45703;50.898;6.054;2022-07-29T08:49:27;100184.28;;;21.17;59.05
59825;BME280;45703;50.898;6.054;2022-07-29T08:51:53;100192.69;;;21.15;58.67
59825;BME280;45703;50.898;6.054;2022-07-29T08:54:19;100183.09;;;21.04;58.84
59825;BME280;45703;50.898;6.054;2022-07-29T08:56:50;100195.44;;;20.92;59.37
59825;BME280;45703;50.898;6.054;2022-07-29T08:59:19;100194.81;;;20.76;60.05
59825;BME280;45703;50.898;6.054;2022-07-29T09:01:46;100193.81;;;20.67;59.95
59825;BME280;45703;50.898;6.054;2022-07-29T09:04:12;100190.16;;;20.53;59.64
59825;BME280;45703;50.898;6.054;2022-07-29T09:06:43;100194.06;;;20.42;60.47
59825;BME280;45703;50.898;6.054;2022-07-29T09:09:09;100194.97;;;20.33;60.68
59825;BME280;45703;50.898;6.054;2022-07-29T09:11:34;100195.88;;;20.24;61.86
59825;BME280;45703;50.898;6.054;2022-07-29T09:14:00;100196.50;;;20.11;61.68
59825;BME280;45703;50.898;6.054;2022-07-29T09:16:25;100202.75;;;20.11;61.27
59825;BME280;45703;50.898;6.054;2022-07-29T09:18:50;100204.16;;;20.04;61.42
59825;BME280;45703;50.898;6.054;2022-07-29T09:21:17;100199.84;;;19.98;62.31
59825;BME280;45703;50.898;6.054;2022-07-29T09:24:12;100197.16;;;19.98;63.72
59825;BME280;45703;50.898;6.054;2022-07-29T09:26:41;100203.75;;;19.87;65.07
59825;BME280;45703;50.898;6.054;2022-07-29T09:29:11;100205.97;;;19.80;65.22
59825;BME280;45703;50.898;6.054;2022-07-29T09:31:39;100217.34;;;19.77;65.70
59825;BME280;45703;50.898;6.054;2022-07-29T09:34:06;100211.97;;;19.72;66.04
59825;BME280;45703;50.898;6.054;2022-07-29T09:36:38;100213.63;;;19.68;66.50
59825;BME280;45703;50.898;6.054;2022-07-29T09:39:04;100215.25;;;19.69;67.02
59825;BME280;45703;50.898;6.054;2022-07-29T09:41:29;100226.94;;;19.59;70.82
59825;BME280;45703;50.898;6.054;2022-07-29T09:44:08;100216.34;;;19.63;67.40
59825;BME280;45703;50.898;6.054;2022-07-29T09:46:33;100218.50;;;19.71;67.50
59825;BME280;45703;50.898;6.054;2022-07-29T09:49:10;100225.91;;;19.94;69.06
59825;BME280;45703;50.898;6.054;2022-07-29T09:51:36;100225.00;;;20.08;68.98
59825;BME280;45703;50.898;6.054;2022-07-29T09:54:21;100222.44;;;20.27;68.67
59825;BME280;45703;50.898;6.054;2022-07-29T09:56:47;100232.59;;;20.40;68.67
59825;BME280;45703;50.898;6.054;2022-07-29T09:59:13;100229.28;;;20.47;67.74
59825;BME280;45703;50.898;6.054;2022-07-29T10:01:39;100229.75;;;20.54;67.80
59825;BME280;45703;50.898;6.054;2022-07-29T10:04:04;100225.94;;;20.55;67.74
59825;BME280;45703;50.898;6.054;2022-07-29T10:06:30;100233.75;;;20.62;67.31
59825;BME280;45703;50.898;6.054;2022-07-29T10:09:09;100230.47;;;20.65;67.22
59825;BME280;45703;50.898;6.054;2022-07-29T10:11:35;100230.91;;;20.72;67.38
59825;BME280;45703;50.898;6.054;2022-07-29T10:14:02;100233.88;;;20.75;67.12
59825;BME280;45703;50.898;6.054;2022-07-29T10:16:29;100224.72;;;20.71;66.71
59825;BME280;45703;50.898;6.054;2022-07-29T10:18:58;100231.69;;;20.77;66.60
59825;BME280;45703;50.898;6.054;2022-07-29T10:21:25;100228.38;;;20.85;66.94
59825;BME280;45703;50.898;6.054;2022-07-29T10:23:50;100224.97;;;20.98;66.53
59825;BME280;45703;50.898;6.054;2022-07-29T10:26:16;100234.13;;;21.02;67.06
59825;BME280;45703;50.898;6.054;2022-07-29T10:28:42;100227.56;;;21.08;66.84
59825;BME280;45703;50.898;6.054;2022-07-29T10:31:28;100231.88;;;21.09;67.28
59825;BME280;45703;50.898;6.054;2022-07-29T10:37:00;100220.34;;;21.22;66.46
59825;BME280;45703;50.898;6.054;2022-07-29T10:42:14;100228.13;;;21.47;66.03
59825;BME280;45703;50.898;6.054;2022-07-29T10:44:42;100228.69;;;21.68;65.53
59825;BME280;45703;50.898;6.054;2022-07-29T10:47:19;100234.28;;;21.76;64.59
59825;BME280;45703;50.898;6.054;2022-07-29T10:50:04;100234.22;;;21.81;64.38
59825;BME280;45703;50.898;6.054;2022-07-29T10:55:37;100222.38;;;21.91;63.93
59825;BME280;45703;50.898;6.054;2022-07-29T11:00:36;100217.22;;;22.07;62.91
59825;BME280;45703;50.898;6.054;2022-07-29T11:03:02;100227.69;;;22.14;62.64
59825;BME280;45703;50.898;6.054;2022-07-29T11:05:27;100215.22;;;22.13;62.58
59825;BME280;45703;50.898;6.054;2022-07-29T11:10:39;100227.38;;;22.34;62.08
59825;BME280;45703;50.898;6.054;2022-07-29T11:13:05;100220.28;;;22.38;61.79
59825;BME280;45703;50.898;6.054;2022-07-29T11:18:19;100218.78;;;22.59;61.29
59825;BME280;45703;50.898;6.054;2022-07-29T11:20:46;100222.44;;;22.68;60.09
59825;BME280;45703;50.898;6.054;2022-07-29T11:23:30;100220.44;;;22.73;59.71
59825;BME280;45703;50.898;6.054;2022-07-29T11:26:15;100222.88;;;22.75;59.19
59825;BME280;45703;50.898;6.054;2022-07-29T11:31:32;100226.78;;;22.82;58.92
59825;BME280;45703;50.898;6.054;2022-07-29T11:47:22;100220.03;;;23.07;57.65
59825;BME280;45703;50.898;6.054;2022-07-29T11:49:52;100221.78;;;23.16;57.54
59825;BME280;45703;50.898;6.054;2022-07-29T11:52:19;100228.75;;;23.22;57.50
59825;BME280;45703;50.898;6.054;2022-07-29T11:54:47;100224.63;;;23.25;57.42
59825;BME280;45703;50.898;6.054;2022-07-29T11:57:13;100236.91;;;23.36;57.79
59825;BME280;45703;50.898;6.054;2022-07-29T11:59:41;100235.06;;;23.45;56.96
59825;BME280;45703;50.898;6.054;2022-07-29T12:02:07;100222.94;;;23.50;56.75
59825;BME280;45703;50.898;6.054;2022-07-29T12:04:33;100220.09;;;23.55;56.38
59825;BME280;45703;50.898;6.054;2022-07-29T12:06:59;100224.53;;;23.65;55.70
59825;BME280;45703;50.898;6.054;2022-07-29T12:09:24;100222.81;;;23.69;55.20
59825;BME280;45703;50.898;6.054;2022-07-29T12:11:56;100227.84;;;23.75;54.85
59825;BME280;45703;50.898;6.054;2022-07-29T12:14:29;100217.53;;;23.72;54.80
59825;BME280;45703;50.898;6.054;2022-07-29T12:16:55;100226.66;;;23.81;55.21
59825;BME280;45703;50.898;6.054;2022-07-29T12:19:20;100219.59;;;23.80;52.47
59825;BME280;45703;50.898;6.054;2022-07-29T12:21:53;100226.41;;;23.91;53.49
59825;BME280;45703;50.898;6.054;2022-07-29T12:24:19;100219.22;;;23.95;53.56
59825;BME280;45703;50.898;6.054;2022-07-29T12:26:53;100214.25;;;23.97;53.09
59825;BME280;45703;50.898;6.054;2022-07-29T12:29:19;100217.84;;;24.06;53.05
59825;BME280;45703;50.898;6.054;2022-07-29T12:31:45;100223.69;;;24.13;52.96
59825;BME280;45703;50.898;6.054;2022-07-29T12:34:12;100219.22;;;24.17;53.46
59825;BME280;45703;50.898;6.054;2022-07-29T12:36:39;100230.19;;;24.26;53.29
59825;BME280;45703;50.898;6.054;2022-07-29T12:39:05;100218.22;;;24.35;52.13
59825;BME280;45703;50.898;6.054;2022-07-29T12:41:30;100227.75;;;24.46;51.40
59825;BME280;45703;50.898;6.054;2022-07-29T12:43:56;100216.22;;;24.49;51.34
59825;BME280;45703;50.898;6.054;2022-07-29T12:46:22;100218.13;;;24.49;50.92
59825;BME280;45703;50.898;6.054;2022-07-29T12:48:51;100200.59;;;24.41;51.23
59825;BME280;45703;50.898;6.054;2022-07-29T12:51:30;100209.28;;;24.43;51.56
59825;BME280;45703;50.898;6.054;2022-07-29T12:56:29;100214.44;;;24.23;50.02
59825;BME280;45703;50.898;6.054;2022-07-29T12:58:54;100209.97;;;24.27;50.78
59825;BME280;45703;50.898;6.054;2022-07-29T13:01:20;100208.22;;;24.31;49.15
59825;BME280;45703;50.898;6.054;2022-07-29T13:03:57;100198.75;;;24.28;50.06
59825;BME280;45703;50.898;6.054;2022-07-29T13:11:40;100208.75;;;24.63;48.40
59825;BME280;45703;50.898;6.054;2022-07-29T13:14:07;100203.84;;;24.74;49.43
59825;BME280;45703;50.898;6.054;2022-07-29T13:16:34;100201.91;;;24.74;48.28
59825;BME280;45703;50.898;6.054;2022-07-29T13:19:10;100201.91;;;24.74;46.82
59825;BME280;45703;50.898;6.054;2022-07-29T13:21:37;100214.13;;;24.77;47.96
59825;BME280;45703;50.898;6.054;2022-07-29T13:24:04;100215.75;;;24.78;48.90
59825;BME280;45703;50.898;6.054;2022-07-29T13:26:30;100210.91;;;24.75;48.08
59825;BME280;45703;50.898;6.054;2022-07-29T13:28:56;100208.19;;;24.75;48.15
59825;BME280;45703;50.898;6.054;2022-07-29T13:31:21;100214.81;;;24.82;47.89
59825;BME280;45703;50.898;6.054;2022-07-29T13:33:47;100202.00;;;24.91;49.47
59825;BME280;45703;50.898;6.054;2022-07-29T13:36:13;100204.25;;;24.98;48.98
59825;BME280;45703;50.898;6.054;2022-07-29T13:38:38;100202.19;;;25.03;49.11
59825;BME280;45703;50.898;6.054;2022-07-29T13:41:03;100198.38;;;25.12;49.44